HOURLY OBS INDEX

082

Northeast - Lower

HUNTERS HILL

Site: 082139
Alt: 981.0m
32km W of CORRYONG


  Time     Wind        Temp  DP   Baro     Rain since   Rain past  Vis(m), Cloud(base in m), Weather
  local        km/h                         9am  last   hr   10m    
Thu 14:00    W 13/ 24  25.5 10.9  ------    0.0   0.0   0.0   0.0   ----- 
Thu 14:30    W 13/ 26  25.6 10.6  ------    0.0   0.0   0.0   0.0   ----- 
Thu 15:00    W 11/ 22  25.9 10.1  ------    0.0   0.0   0.0   0.0   ----- 
Thu 15:30    W  9/ 28  26.8 10.9  ------    0.0   0.0   0.0   0.0   ----- 
Thu 16:00    W  9/ 24  26.2 10.4  ------    0.0   0.0   0.0   0.0   ----- 
Thu 16:30    W  6/ 20  27.4 10.6  ------    0.0   0.0   0.0   0.0   ----- 
Thu 17:00    W  9/ 22  26.9 10.6  ------    0.0   0.0   0.0   0.0   ----- 
Thu 17:30  WSW  9/ 20  26.3  8.8  ------    0.0   0.0   0.0   0.0   ----- 
Thu 18:00  WSW  4/  9  24.7 10.9  ------    0.0   0.0   0.0   0.0   ----- 
Thu 18:30  WSW  7/ 15  25.4 10.8  ------    0.0   0.0   0.0   0.0   ----- 
Thu 19:00  WSW  9/ 19  24.2 11.2  ------    0.0   0.0   0.0   0.0   ----- 

RUTHERGLEN RESEARCH

Site: 082039
Alt: 175.0m
33km NNE of WANGARATTA


  Time     Wind        Temp  DP   Baro     Rain since   Rain past  Vis(m), Cloud(base in m), Weather
  local        km/h                         9am  last   hr   10m    
Thu 14:00  WSW 26/ 43  35.1  8.8  ------    0.0   0.0   0.0   0.0   ----- 
Thu 14:30  WSW 24/ 35  33.3  8.7  ------    0.0   0.0   0.0   0.0   ----- 
Thu 15:00  WSW 24/ 39  34.4  8.9  ------    0.0   0.0   0.0   0.0   ----- 
Thu 15:30  WSW 24/ 35  35.7  9.3  ------    0.0   0.0   0.0   0.0   ----- 
Thu 16:00  WSW 24/ 35  33.1  7.9  ------    0.0   0.0   0.0   0.0   ----- 
Thu 16:30  WSW 28/ 37  32.5  7.4  ------    0.0   0.0   0.0   0.0   ----- 
Thu 17:00  WSW 20/ 26  32.0  8.9  ------    0.0   0.0   0.0   0.0   ----- 
Thu 17:30  SSW 19/ 32  31.7  9.3  ------    0.0   0.0   0.0   0.0   ----- 
Thu 18:00   SW 20/ 32  30.5  4.3  ------    0.0   0.0   0.0   0.0   ----- 
Thu 18:30   SW 19/ 28  30.7  7.8  ------    0.0   0.0   0.0   0.0   ----- 
Thu 19:00   SW 13/ 20  29.2  6.6  ------    0.0   0.0   0.0   0.0   ----- 

WANGARATTA AERO

Site: 082138
Alt: 152.6m
7km S of WANGARATTA


  Time     Wind        Temp  DP   Baro     Rain since   Rain past  Vis(m), Cloud(base in m), Weather
  local        km/h                         9am  last   hr   10m    
Thu 14:00  WSW 22/ 32  32.8  9.6  1010.6    0.0   0.0   0.0   0.0   10000 
Thu 14:30  WSW 22/ 33  32.7  8.2  1010.5    0.0   0.0   0.0   0.0   10000 
Thu 15:00    W 24/ 32  33.4  8.8  1010.6    0.0   0.0   0.0   0.0   10000 
Thu 15:30  WSW 28/ 39  32.6  6.7  1010.5    0.0   0.0   0.0   0.0   10000 
Thu 16:00  WSW 26/ 41  31.6  7.3  1010.7    0.0   0.0   0.0   0.0   10000 
Thu 16:30  WSW 19/ 26  30.9  7.4  1010.6    0.0   0.0   0.0   0.0   10000|SC1470 SC3300 
Thu 17:00  WSW 24/ 33  31.7  1.9  1010.7    0.0   0.0   0.0   0.0   10000 
Thu 17:30  WSW 20/ 35  31.7  1.9  1010.7    0.0   0.0   0.0   0.0   10000 
Thu 18:00   SW 20/ 28  31.1  1.4  1010.9    0.0   0.0   0.0   0.0   10000 
Thu 18:30  WSW 20/ 30  27.9  4.9  1011.2    0.0   0.0   0.0   0.0   10000 
Thu 19:00   SW 15/ 20  28.3  6.4  1011.5    0.0   0.0   0.0   0.0   10000